Latest Weather Observations for Cape Moreton

IDQ60801

Issued at 11:02 am EST Tuesday 3 May 2016 (issued every 30 minutes, with the page automatically refreshed every 10 minutes)

About weather observations | Map of weather stations | Latest weather observations for QLD | Other Formats
Station Details ID: 040043 Name: CAPE MORETON LIGHTHOUSE Lat: -27.03 Lon: 153.47 Height: 99.9 m
Data from the previous 72 hours. | See also: Recent months at Cape Moreton
Date/Time
EST
Temp
°C
App
Temp
°C
Dew
Point
Rel
Hum
%
Delta-T
°C
Wind Press
QNH
hPa
Press
MSL
hPa
Rain
since 9 am
mm
Dir
 
Spd
km/h
Gust
km/h
Spd
kts
Gust
kts
03/11:00am 23.2 24.3 19.6 80 2.3 WSW 13 19 7 10 1013.6 1013.3 0.0
03/10:30am 23.3 25.3 21.6 90 1.1 W 13 19 7 10 1014.0 1013.7 0.0
03/10:00am 22.7 25.2 21.7 94 0.7 WSW 11 13 6 7 1014.3 1014.0 0.0
03/09:30am 22.1 25.2 21.4 96 0.5 W 7 11 4 6 1014.4 1014.1 0.0
03/09:00am 22.0 24.3 21.3 96 0.5 W 11 17 6 9 1014.7 1014.4 5.0
03/08:30am 22.1 24.3 21.8 98 0.2 W 13 17 7 9 1014.8 1014.5 5.0
03/08:00am 22.1 24.7 21.9 99 0.1 WSW 11 13 6 7 1014.8 1014.5 5.0
03/07:30am 21.8 24.2 21.6 99 0.1 W 11 13 6 7 1014.6 1014.3 5.0
03/07:00am 22.1 25.1 21.9 99 0.1 NW 9 11 5 6 1014.4 1014.1 5.0
03/06:30am 21.8 24.9 21.5 98 0.2 NW 7 11 4 6 1014.3 1014.0 5.0
03/06:00am 21.7 23.9 21.2 97 0.3 NW 11 15 6 8 1013.9 1013.6 5.0
03/05:30am 21.6 23.1 21.3 98 0.2 N 15 19 8 10 1013.6 1013.3 5.0
03/05:00am 21.7 24.5 21.5 99 0.1 NW 9 13 5 7 1013.5 1013.2 5.0
03/04:30am 21.7 24.1 21.5 99 0.1 NNW 11 15 6 8 1013.3 1013.0 5.0
03/04:00am 21.6 23.9 21.4 99 0.1 N 11 15 6 8 1013.4 1013.1 5.0
03/03:30am 21.4 22.9 21.2 99 0.1 NNE 15 17 8 9 1013.3 1013.0 5.0
03/03:00am 21.6 22.8 21.4 99 0.1 NE 17 20 9 11 1013.3 1013.0 5.0
03/02:30am 21.5 23.0 21.3 99 0.1 NNE 15 19 8 10 1013.8 1013.5 5.0
03/02:00am 21.7 23.3 21.5 99 0.1 NNE 15 19 8 10 1014.4 1014.1 5.0
03/01:30am 21.8 24.2 21.5 98 0.2 NNE 11 15 6 8 1014.9 1014.6 4.2
03/01:00am 22.1 24.6 21.1 94 0.7 ENE 9 13 5 7 1015.3 1015.0 2.6
03/12:30am 22.7 24.9 21.2 91 1.0 ESE 11 17 6 9 1015.7 1015.4 0.2
03/12:00am 22.9 24.3 21.0 89 1.2 ENE 15 19 8 10 1015.1 1014.8 0.0
 
Date/Time
EST
Temp
°C
App
Temp
°C
Dew
Point
Rel
Hum
%
Delta-T
°C
Wind Press
QNH
hPa
Press
MSL
hPa
Rain
since 9 am
mm
Dir
 
Spd
km/h
Gust
km/h
Spd
kts
Gust
kts
02/11:30pm 22.7 24.0 20.8 89 1.2 E 15 17 8 9 1015.0 1014.7 0.0
02/11:00pm 22.9 25.0 21.0 89 1.2 E 11 17 6 9 1015.4 1015.1 0.0
02/10:30pm 22.9 24.6 21.0 89 1.2 ESE 13 17 7 9 1016.2 1015.9 0.0
02/10:00pm 22.9 23.9 21.0 89 1.2 ESE 17 20 9 11 1015.9 1015.6 0.0
02/09:30pm 22.9 23.4 20.8 88 1.4 ESE 19 20 10 11 1015.7 1015.4 0.0
02/09:00pm 22.8 23.6 20.7 88 1.4 E 17 20 9 11 1015.8 1015.5 0.0
02/08:30pm 22.9 23.8 20.8 88 1.4 ESE 17 19 9 10 1015.7 1015.4 0.0
02/08:00pm 22.9 23.7 20.6 87 1.5 ESE 17 20 9 11 1015.5 1015.2 0.0
02/07:30pm 22.8 23.9 20.5 87 1.5 ESE 15 20 8 11 1015.7 1015.4 0.0
02/07:00pm 22.9 24.1 20.6 87 1.5 ESE 15 19 8 10 1015.9 1015.6 0.0
02/06:30pm 22.8 23.8 20.3 86 1.6 SE 15 19 8 10 1015.8 1015.5 0.0
02/06:00pm 22.9 23.6 20.4 86 1.6 ESE 17 19 9 10 1015.2 1014.9 0.0
02/05:30pm 23.0 24.2 20.7 87 1.5 ESE 15 19 8 10 1015.1 1014.8 0.0
02/05:00pm 23.0 23.8 20.7 87 1.5 ESE 17 20 9 11 1014.5 1014.2 0.0
02/04:30pm 23.3 24.2 20.8 86 1.6 ESE 17 19 9 10 1014.1 1013.8 0.0
02/04:00pm 23.7 24.3 21.0 85 1.8 ESE 19 22 10 12 1014.0 1013.7 0.0
02/03:30pm 24.2 24.8 21.1 83 2.0 ESE 19 20 10 11 1013.8 1013.5 0.0
02/03:00pm 25.0 26.3 21.7 82 2.2 ESE 17 19 9 10 1013.8 1013.5 0.0
02/02:30pm 24.8 25.9 21.3 81 2.3 SE 17 22 9 12 1014.1 1013.8 0.0
02/02:00pm 25.1 26.2 21.2 79 2.6 SE 17 20 9 11 1014.2 1013.9 0.0
02/01:30pm 24.8 25.8 21.1 80 2.4 SE 17 20 9 11 1014.5 1014.2 0.0
02/01:00pm 25.3 26.0 21.2 78 2.7 SE 19 22 10 12 1014.7 1014.4 0.0
02/12:30pm 25.3 25.9 21.4 79 2.6 SE 20 24 11 13 1015.1 1014.8 0.0
02/12:00pm 25.3 27.5 22.6 85 1.8 SSE 15 20 8 11 1015.8 1015.5 0.0
02/11:30am 24.8 27.3 22.5 87 1.5 SE 13 19 7 10 1016.1 1015.8 0.0
02/11:00am 24.9 27.3 23.0 89 1.3 SSE 15 22 8 12 1016.4 1016.1 0.0
02/10:30am 24.7 26.6 22.8 89 1.3 SSE 17 24 9 13 1016.9 1016.6 0.0
02/10:00am 24.4 26.4 22.3 88 1.4 SSE 15 19 8 10 1017.1 1016.8 0.0
02/09:30am 24.4 27.2 22.3 88 1.4 SSE 11 17 6 9 1017.3 1017.0 0.0
02/09:00am 23.4 25.6 21.8 91 1.1 S 13 17 7 9 1017.3 1017.0 13.8
02/08:30am 23.0 25.3 22.0 94 0.7 S 13 19 7 10 1017.5 1017.2 13.8
02/08:00am 22.5 24.0 21.3 93 0.8 S 15 22 8 12 1017.0 1016.7 13.8
02/07:30am 22.4 24.6 21.9 97 0.3 S 13 15 7 8 1017.0 1016.7 13.8
02/07:00am 21.1 22.9 21.1 100 0.0 SSW 13 17 7 9 1016.8 1016.5 13.8
02/06:30am 20.9 21.8 20.9 100 0.0 SSW 17 19 9 10 1016.6 1016.3 13.8
02/06:00am 20.8 21.7 20.8 100 0.0 SSW 17 19 9 10 1016.5 1016.2 13.8
02/05:30am 20.7 21.5 20.7 100 0.0 SW 17 19 9 10 1016.1 1015.8 13.8
02/05:00am 20.7 21.5 20.7 100 0.0 SW 17 20 9 11 1015.7 1015.4 13.8
02/04:30am 20.7 21.5 20.7 100 0.0 SW 17 20 9 11 1015.6 1015.3 13.8
02/04:00am 20.9 21.4 20.9 100 0.0 WSW 19 20 10 11 1015.4 1015.1 13.8
02/03:30am 21.0 22.0 21.0 100 0.0 WSW 17 20 9 11 1015.2 1014.9 13.8
02/03:00am 21.5 23.5 21.5 100 0.0 WNW 13 15 7 8 1014.7 1014.4 13.8
02/02:30am 21.5 23.5 21.5 100 0.0 NW 13 15 7 8 1014.7 1014.4 13.8
02/02:00am 21.1 23.3 21.1 100 0.0 WNW 11 15 6 8 1014.9 1014.6 13.8
02/01:30am 20.8 22.4 20.8 100 0.0 W 13 17 7 9 1015.7 1015.4 13.8
02/01:00am 21.4 24.1 21.4 100 0.0 SSW 9 11 5 6 1015.8 1015.5 13.8
02/12:30am 21.4 25.1 21.4 100 0.0 NE 4 7 2 4 1015.8 1015.5 13.8
02/12:00am 21.3 24.0 21.3 100 0.0 S 9 13 5 7 1016.4 1016.1 13.8
 
Date/Time
EST
Temp
°C
App
Temp
°C
Dew
Point
Rel
Hum
%
Delta-T
°C
Wind Press
QNH
hPa
Press
MSL
hPa
Rain
since 9 am
mm
Dir
 
Spd
km/h
Gust
km/h
Spd
kts
Gust
kts
01/11:30pm 21.1 22.5 21.1 100 0.0 SSW 15 17 8 9 1017.0 1016.7 13.8
01/11:00pm 21.0 22.4 21.0 100 0.0 SW 15 19 8 10 1017.2 1016.9 13.8
01/10:30pm 21.0 22.0 21.0 100 0.0 WSW 17 20 9 11 1017.4 1017.1 13.8
01/10:00pm 21.2 22.3 21.2 100 0.0 WSW 17 20 9 11 1017.1 1016.8 13.8
01/09:30pm 21.4 23.0 21.4 100 0.0 SW 15 17 8 9 1017.0 1016.7 13.8
01/09:00pm 21.6 22.9 21.6 100 0.0 WSW 17 20 9 11 1017.2 1016.9 13.8
01/08:30pm 22.0 25.6 22.0 100 0.0 W 6 9 3 5 1017.0 1016.7 13.8
01/08:00pm 22.3 25.1 22.3 100 0.0 ESE 11 13 6 7 1016.9 1016.6 13.8
01/07:30pm 22.3 24.3 22.3 100 0.0 ESE 15 19 8 10 1016.4 1016.1 13.8
01/07:00pm 22.4 24.5 22.4 100 0.0 ESE 15 19 8 10 1016.3 1016.0 13.8
01/06:30pm 22.3 23.0 22.3 100 0.0 SE 22 26 12 14 1016.1 1015.8 13.8
01/06:00pm 21.9 22.4 21.9 100 0.0 SE 22 28 12 15 1015.9 1015.6 13.8
01/05:30pm 22.2 22.5 22.2 100 0.0 SE 24 28 13 15 1015.7 1015.4 13.8
01/05:00pm 22.1 21.9 22.1 100 0.0 SE 26 30 14 16 1015.8 1015.5 13.8
01/04:30pm 21.6 20.8 21.6 100 0.0 S 28 35 15 19 1015.9 1015.6 13.8
01/04:00pm 21.8 21.9 21.8 100 0.0 S 24 32 13 17 1015.8 1015.5 13.8
01/03:30pm 21.6 22.3 21.6 100 0.0 SSW 20 28 11 15 1015.7 1015.4 13.8
01/03:00pm 21.6 22.3 21.6 100 0.0 SSW 20 26 11 14 1015.5 1015.2 13.8
01/02:30pm 21.8 22.6 21.8 100 0.0 S 20 24 11 13 1015.3 1015.0 13.8
01/02:00pm 22.2 24.9 22.2 100 0.0 S 11 17 6 9 1015.5 1015.2 13.6
01/01:30pm 22.3 25.5 22.3 100 0.0 SSW 9 13 5 7 1015.6 1015.3 13.2
01/01:00pm 22.1 25.6 22.1 100 0.0 SE 7 9 4 5 1016.1 1015.8 11.8
01/12:30pm 22.1 26.1 22.1 100 0.0 NE 4 9 2 5 1016.4 1016.1 10.6
01/12:00pm 21.8 25.1 21.8 100 0.0 NW 7 13 4 7 1016.9 1016.6 7.4
01/11:30am 22.3 25.4 22.1 99 0.1 NNW 9 13 5 7 1017.4 1017.1 4.0
01/11:00am 23.1 26.1 22.6 97 0.3 N 11 20 6 11 1018.0 1017.7 0.2
01/10:30am 22.8 22.2 22.0 95 0.5 NNE 28 43 15 23 1018.3 1018.0 0.0
01/10:00am 24.0 25.7 23.1 95 0.6 NE 19 26 10 14 1018.7 1018.4 0.0
01/09:30am 24.0 24.9 22.6 92 0.9 NNE 22 28 12 15 1019.1 1018.7 0.0
01/09:00am 23.9 25.5 23.2 96 0.5 NE 20 24 11 13 1019.2 1018.8 4.2
01/08:30am 23.6 24.4 23.1 97 0.3 NE 24 30 13 16 1019.0 1018.6 4.2
01/08:00am 22.8 24.2 22.6 99 0.1 NE 19 24 10 13 1018.8 1018.4 4.2
01/07:30am 23.0 24.5 23.0 100 0.0 ENE 20 22 11 12 1018.8 1018.4 4.2
01/07:00am 22.6 24.8 22.6 100 0.0 E 15 19 8 10 1018.7 1018.3 4.2
01/06:30am 21.8 22.6 21.8 100 0.0 ESE 20 24 11 13 1018.3 1017.9 4.2
01/06:00am 21.9 22.8 21.9 100 0.0 E 20 24 11 13 1018.1 1017.7 4.2
01/05:30am 21.9 20.9 21.9 100 0.0 E 30 35 16 19 1018.1 1017.7 3.6
01/05:14am 22.1 21.6 22.1 100 0.0 E 28 44 15 24 1017.8 1017.4 3.4
01/05:00am 22.0 22.5 22.0 100 0.0 E 22 24 12 13 1017.8 1017.4 3.4
01/04:30am 21.8 22.6 21.8 100 0.0 E 20 24 11 13 1017.8 1017.4 3.4
01/04:00am 21.6 21.9 21.6 100 0.0 ESE 22 28 12 15 1017.9 1017.5 3.4
01/03:30am 21.4 20.9 21.4 100 0.0 ESE 26 32 14 17 1018.0 1017.6 3.4
01/03:00am 21.4 20.9 21.4 100 0.0 ESE 26 33 14 18 1018.1 1017.7 3.4
01/02:30am 20.9 21.3 20.9 100 0.0 ENE 20 26 11 14 1018.6 1018.2 3.2
01/02:00am 21.4 19.5 21.4 100 0.0 ENE 33 43 18 23 1018.6 1018.2 2.6
01/01:30am 22.0 22.2 22.0 100 0.0 E 24 33 13 18 1018.7 1018.3 2.4
01/01:00am 22.1 24.3 21.9 99 0.1 ENE 13 17 7 9 1019.2 1018.8 1.8
01/12:30am 21.5 20.9 21.3 99 0.1 NE 26 33 14 18 1019.3 1018.9 1.4
01/12:00am 22.6 22.6 22.4 99 0.1 ENE 26 35 14 19 1019.3 1018.9 1.4
 
Date/Time
EST
Temp
°C
App
Temp
°C
Dew
Point
Rel
Hum
%
Delta-T
°C
Wind Press
QNH
hPa
Press
MSL
hPa
Rain
since 9 am
mm
Dir
 
Spd
km/h
Gust
km/h
Spd
kts
Gust
kts
30/11:30pm 22.4 24.0 22.2 99 0.1 E 17 19 9 10 1019.5 1019.1 1.2
30/11:00pm 22.0 22.4 21.8 99 0.1 E 22 30 12 16 1019.7 1019.3 1.2
30/10:30pm 21.7 20.8 21.5 99 0.1 ENE 28 33 15 18 1019.8 1019.4 1.2
30/10:00pm 21.8 22.8 21.8 100 0.0 E 19 22 10 12 1020.1 1019.7 1.2
30/09:30pm 21.7 21.6 21.5 99 0.1 ENE 24 28 13 15 1020.4 1020.0 1.2
30/09:00pm 21.0 19.0 20.7 98 0.2 ENE 32 37 17 20 1020.3 1019.9 0.8
30/08:30pm 22.0 20.1 21.0 94 0.7 ENE 32 35 17 19 1020.3 1019.9 0.0
30/08:00pm 22.7 21.8 21.5 93 0.8 ENE 28 30 15 16 1020.0 1019.6 0.0
30/07:30pm 22.4 20.3 21.0 92 0.9 ENE 33 39 18 21 1019.8 1019.4 0.0
30/07:00pm 22.8 21.4 20.5 87 1.5 ENE 28 32 15 17 1019.5 1019.1 0.0
30/06:30pm 22.6 20.4 20.7 89 1.2 ENE 33 41 18 22 1019.3 1018.9 0.0
30/06:00pm 23.4 22.4 21.3 88 1.4 ENE 28 30 15 16 1019.3 1018.9 0.0
30/05:30pm 23.5 22.8 21.0 86 1.6 ENE 26 30 14 16 1019.0 1018.6 0.0
30/05:00pm 23.8 22.9 21.5 87 1.5 ENE 28 30 15 16 1019.0 1018.6 0.0
30/04:30pm 24.0 23.3 21.1 84 1.9 E 26 28 14 15 1018.8 1018.4 0.0
30/04:00pm 24.4 24.0 20.9 81 2.3 E 24 28 13 15 1018.6 1018.2 0.0
30/03:30pm 24.9 24.5 21.0 79 2.6 E 24 28 13 15 1018.6 1018.2 0.0
30/03:00pm 25.7 25.7 20.9 75 3.2 E 22 24 12 13 1018.6 1018.2 0.0
30/02:30pm 26.0 26.4 21.0 74 3.3 E 20 24 11 13 1018.6 1018.2 0.0
30/02:00pm 26.0 25.8 20.6 72 3.5 E 22 24 12 13 1018.6 1018.2 0.0
30/01:30pm 26.1 26.0 20.7 72 3.6 E 22 24 12 13 1018.8 1018.4 0.0
30/01:00pm 26.3 26.4 20.4 70 3.9 E 20 24 11 13 1019.1 1018.7 0.0
30/12:30pm 26.9 27.5 21.4 72 3.7 ENE 20 24 11 13 1019.6 1019.2 0.0
30/12:00pm 25.8 26.0 20.6 73 3.4 E 20 22 11 12 1020.0 1019.6 0.0
30/11:30am 27.7 28.3 21.3 68 4.3 E 20 22 11 12 1020.7 1020.3 0.0

Other Formats:

Comma delimited format used in spreadsheet applications
http://www.bom.gov.au/fwo/IDQ60801/IDQ60801.94594.axf

JavaScript Object Notation format (JSON) in row-major order
http://www.bom.gov.au/fwo/IDQ60801/IDQ60801.94594.json